createdAt,value
2022-08-23T03:58:41.480Z,42.30
2022-08-23T04:01:09.603Z,41.50
2022-08-23T04:03:36.446Z,40.91
2022-08-23T04:06:05.609Z,40.75
2022-08-23T04:08:33.816Z,40.17
2022-08-23T04:11:03.680Z,40.06
2022-08-23T04:13:31.091Z,40.04
2022-08-23T04:16:03.522Z,39.77
2022-08-23T04:18:32.928Z,39.58
2022-08-23T04:21:04.290Z,39.65
2022-08-23T04:23:32.180Z,40.14
2022-08-23T04:25:59.524Z,40.35
2022-08-23T04:28:31.069Z,40.08
2022-08-23T04:31:00.383Z,39.99
2022-08-23T04:33:31.942Z,40.35
2022-08-23T04:36:01.551Z,40.44
2022-08-23T04:38:28.839Z,40.39
2022-08-23T04:41:19.560Z,39.83
2022-08-23T04:43:47.169Z,39.73
2022-08-23T04:46:16.416Z,39.78
2022-08-23T04:48:46.824Z,40.09
2022-08-23T04:51:15.343Z,40.06
2022-08-23T04:53:43.322Z,40.21
2022-08-23T04:56:50.949Z,40.56
2022-08-23T04:59:21.928Z,40.33
2022-08-23T05:01:50.923Z,40.03
2022-08-23T05:04:18.128Z,39.83
2022-08-23T05:06:46.453Z,39.37
2022-08-23T05:09:18.442Z,39.28
2022-08-23T05:11:47.775Z,38.50
2022-08-23T05:14:15.051Z,38.15
2022-08-23T05:16:42.486Z,37.71
2022-08-23T05:19:10.648Z,37.57
2022-08-23T05:21:43.572Z,37.38
2022-08-23T05:24:13.699Z,37.58
2022-08-23T05:26:42.981Z,37.58
2022-08-23T05:29:10.423Z,37.47
2022-08-23T05:31:43.773Z,36.99
2022-08-23T05:34:15.115Z,37.35
2022-08-23T05:36:56.142Z,36.55
2022-08-23T05:39:37.449Z,36.93
2022-08-23T05:42:08.773Z,36.74
2022-08-23T05:44:37.435Z,36.63
2022-08-23T05:47:11.128Z,36.63
2022-08-23T05:49:52.966Z,36.46
2022-08-23T05:52:21.321Z,36.83
2022-08-23T05:54:48.195Z,37.00
2022-08-23T05:57:38.535Z,37.15
2022-08-23T06:00:09.125Z,37.15
2022-08-23T06:02:46.660Z,37.17
2022-08-23T06:05:14.344Z,37.20
2022-08-23T06:07:43.859Z,37.69
2022-08-23T06:10:15.908Z,36.90
2022-08-23T06:12:48.675Z,36.69
2022-08-23T06:15:15.916Z,37.19
2022-08-23T06:17:42.994Z,37.11
2022-08-23T06:20:10.872Z,37.08
2022-08-23T06:22:55.549Z,37.34
2022-08-23T06:25:22.962Z,36.97
2022-08-23T06:27:59.682Z,36.92
2022-08-23T06:30:27.926Z,37.23
2022-08-23T06:33:15.715Z,36.90
2022-08-23T06:36:15.191Z,36.37
2022-08-23T06:39:03.679Z,35.84
2022-08-23T06:41:51.463Z,36.02
2022-08-23T06:44:27.615Z,35.51
2022-08-23T06:47:14.061Z,35.19
2022-08-23T06:49:41.583Z,34.79
2022-08-23T06:52:31.599Z,34.75
2022-08-23T06:55:20.253Z,34.32
2022-08-23T06:58:04.579Z,34.38
2022-08-23T07:00:54.247Z,34.10
2022-08-23T07:03:45.998Z,33.83
2022-08-23T07:06:34.611Z,34.33
2022-08-23T07:09:05.244Z,34.18
2022-08-23T07:11:33.066Z,33.93
2022-08-23T07:14:01.382Z,34.02
2022-08-23T07:16:44.718Z,34.29
2022-08-23T07:19:12.937Z,34.19
2022-08-23T07:21:41.376Z,34.08
2022-08-23T07:24:09.639Z,33.39
2022-08-23T07:26:39.935Z,33.11
2022-08-23T07:29:09.510Z,32.99
2022-08-23T07:31:41.396Z,33.31
2022-08-23T07:34:09.500Z,33.20
2022-08-23T07:36:42.214Z,33.08
2022-08-23T07:39:11.254Z,32.50
2022-08-23T07:41:38.862Z,32.81
2022-08-23T07:44:09.437Z,33.25
2022-08-23T07:46:40.860Z,33.42
2022-08-23T07:49:11.733Z,33.36
2022-08-23T07:51:47.218Z,32.83
2022-08-23T07:54:15.520Z,32.32
2022-08-23T07:57:05.661Z,32.36
2022-08-23T07:59:53.813Z,32.20
2022-08-23T08:02:40.338Z,31.74
2022-08-23T08:05:20.940Z,31.33
2022-08-23T08:07:49.450Z,30.91
2022-08-23T08:10:21.349Z,30.71
2022-08-23T08:12:51.673Z,30.70
2022-08-23T08:15:20.661Z,30.88
2022-08-23T08:17:54.912Z,30.93
2022-08-23T08:20:22.365Z,30.88
2022-08-23T08:22:56.377Z,30.46
2022-08-23T08:25:45.948Z,30.79
2022-08-23T08:28:16.195Z,30.54
2022-08-23T08:30:43.662Z,30.62
2022-08-23T08:33:10.984Z,30.48
2022-08-23T08:35:38.939Z,30.19
2022-08-23T08:38:06.578Z,30.42
2022-08-23T08:40:40.584Z,30.54
2022-08-23T08:43:30.674Z,30.68
2022-08-23T08:46:14.002Z,30.69
2022-08-23T08:48:45.930Z,30.92
2022-08-23T08:51:42.099Z,30.86
2022-08-23T08:54:13.452Z,30.37
2022-08-23T08:56:48.494Z,30.28
2022-08-23T08:59:33.599Z,30.18
2022-08-23T09:02:03.044Z,30.39
2022-08-23T09:04:37.276Z,30.18
2022-08-23T09:07:31.349Z,30.23
2022-08-23T09:10:15.939Z,30.48
2022-08-23T09:13:23.663Z,29.86
2022-08-23T09:16:18.761Z,29.72
2022-08-23T09:18:47.207Z,29.67
2022-08-23T09:21:15.780Z,29.20
2022-08-23T09:23:48.149Z,29.26
2022-08-23T09:26:38.625Z,29.26
2022-08-23T09:29:22.767Z,28.80
2022-08-23T09:31:53.919Z,28.58
2022-08-23T09:34:42.945Z,28.28
2022-08-23T09:37:24.399Z,28.22
2022-08-23T09:40:17.722Z,28.10
2022-08-23T09:42:47.310Z,27.35
2022-08-23T09:45:35.351Z,27.41
2022-08-23T09:48:06.845Z,27.29
2022-08-23T09:50:47.929Z,27.37
2022-08-23T09:53:29.944Z,27.30
2022-08-23T09:56:11.541Z,26.63
2022-08-23T09:58:43.001Z,26.73
2022-08-23T10:01:27.545Z,26.85
2022-08-23T10:04:41.244Z,26.73
2022-08-23T10:07:26.394Z,26.67
2022-08-23T10:10:18.832Z,26.61
2022-08-23T10:12:47.117Z,26.36
2022-08-23T10:15:16.579Z,26.62
2022-08-23T10:18:08.704Z,26.58
2022-08-23T10:20:49.628Z,26.50
2022-08-23T10:23:23.292Z,26.92
2022-08-23T10:25:58.703Z,26.31
2022-08-23T10:29:01.130Z,26.32
2022-08-23T10:31:38.070Z,26.28
2022-08-23T10:34:38.301Z,25.94
2022-08-23T10:37:14.502Z,26.08
2022-08-23T10:40:25.834Z,26.28
2022-08-23T10:43:01.653Z,26.39
2022-08-23T10:45:33.346Z,25.81
2022-08-23T10:48:28.727Z,26.10
2022-08-23T10:51:01.341Z,26.21
2022-08-23T10:53:38.189Z,26.45
2022-08-23T10:56:07.937Z,26.00
2022-08-23T10:58:52.095Z,25.96
2022-08-23T11:01:23.408Z,26.05
2022-08-23T11:04:15.533Z,26.02
2022-08-23T11:07:01.766Z,25.95
2022-08-23T11:09:51.190Z,25.72
2022-08-23T11:12:32.029Z,25.66
2022-08-23T11:15:31.286Z,25.60
2022-08-23T11:18:00.604Z,25.87
2022-08-23T11:20:50.740Z,25.65
2022-08-23T11:23:59.484Z,25.35
2022-08-23T11:26:36.193Z,25.15
2022-08-23T11:29:06.776Z,25.24
2022-08-23T11:31:42.988Z,24.92
2022-08-23T11:34:19.731Z,24.90
2022-08-23T11:37:22.022Z,25.11
2022-08-23T11:40:01.978Z,24.94
2022-08-23T11:42:37.601Z,24.49
2022-08-23T11:45:30.657Z,24.74
2022-08-23T11:48:43.665Z,24.78
2022-08-23T11:51:26.038Z,24.33
2022-08-23T11:53:52.943Z,24.58
2022-08-23T11:56:54.457Z,24.45
2022-08-23T12:00:01.677Z,24.38
2022-08-23T12:02:38.656Z,24.36
2022-08-23T12:05:20.686Z,24.46
2022-08-23T12:07:52.460Z,24.28
2022-08-23T12:10:45.366Z,23.72
2022-08-23T12:13:18.266Z,24.17
2022-08-23T12:16:06.926Z,24.22
2022-08-23T12:18:49.402Z,24.07
2022-08-23T12:21:18.890Z,24.25
2022-08-23T12:23:49.718Z,24.53
2022-08-23T12:26:26.731Z,24.25
2022-08-23T12:29:09.588Z,24.50
2022-08-23T12:31:49.637Z,23.60
2022-08-23T12:34:45.861Z,24.18
2022-08-23T12:37:28.768Z,23.64
2022-08-23T12:40:02.544Z,23.23
2022-08-23T12:42:39.623Z,23.46
2022-08-23T12:45:18.470Z,23.30
2022-08-23T12:47:55.232Z,24.17
2022-08-23T12:50:32.706Z,23.60
2022-08-23T12:53:10.811Z,23.84
2022-08-23T12:55:45.454Z,23.64
2022-08-23T12:58:15.695Z,23.15
2022-08-23T13:00:54.267Z,23.21
2022-08-23T13:03:44.631Z,23.15
2022-08-23T13:06:15.178Z,23.05
2022-08-23T13:08:47.862Z,23.10
2022-08-23T13:11:20.810Z,23.37
2022-08-23T13:13:49.002Z,23.19
2022-08-23T13:16:28.185Z,23.44
2022-08-23T13:18:56.409Z,23.08
2022-08-23T13:21:23.123Z,23.39
2022-08-23T13:23:54.572Z,22.99
2022-08-23T13:26:43.198Z,23.21
2022-08-23T13:29:15.972Z,23.45
2022-08-23T13:32:03.418Z,23.59
2022-08-23T13:34:48.792Z,23.59
2022-08-23T13:37:32.565Z,23.60
2022-08-23T13:40:05.556Z,23.65
2022-08-23T13:42:51.097Z,23.58
2022-08-23T13:45:27.066Z,23.53
2022-08-23T13:48:02.636Z,23.62
2022-08-23T13:50:34.679Z,23.63
2022-08-23T13:53:14.293Z,23.49
2022-08-23T13:55:52.255Z,23.83
2022-08-23T13:58:31.465Z,23.86
2022-08-23T14:01:00.730Z,23.74
2022-08-23T14:03:29.483Z,23.88
2022-08-23T14:05:56.301Z,24.08
2022-08-23T14:08:23.490Z,23.87
2022-08-23T14:10:51.162Z,24.04
2022-08-23T14:13:19.428Z,24.24
2022-08-23T14:18:34.624Z,24.48
2022-08-23T14:21:03.659Z,24.33
2022-08-23T14:23:30.667Z,24.16
2022-08-23T14:25:59.244Z,24.30
2022-08-23T14:28:30.101Z,24.54
2022-08-23T14:30:58.133Z,24.48
2022-08-23T14:33:25.311Z,24.38
2022-08-23T14:35:52.677Z,24.48
2022-08-23T14:38:19.932Z,24.59
2022-08-23T14:41:09.199Z,25.00
2022-08-23T14:43:36.956Z,25.20
2022-08-23T14:46:05.116Z,24.93
2022-08-23T14:48:32.717Z,24.71
2022-08-23T14:50:59.983Z,25.10
2022-08-23T14:53:30.286Z,25.09
2022-08-23T14:56:20.242Z,25.43
2022-08-23T14:58:50.414Z,25.75
2022-08-23T15:01:18.916Z,26.11
2022-08-23T15:03:50.019Z,26.14
2022-08-23T15:06:18.937Z,26.40
2022-08-23T15:08:46.072Z,26.82
2022-08-23T15:14:03.614Z,27.14
2022-08-23T15:16:30.645Z,27.24
2022-08-23T15:18:58.544Z,27.40
2022-08-23T15:21:26.652Z,27.46
2022-08-23T15:23:53.424Z,27.23
2022-08-23T15:26:25.137Z,27.52
2022-08-23T15:28:53.077Z,27.95
2022-08-23T15:31:20.671Z,27.87
2022-08-23T15:33:48.027Z,27.85
2022-08-23T15:36:16.690Z,27.95
2022-08-23T15:38:47.834Z,28.13
2022-08-23T15:41:18.146Z,28.46
2022-08-23T15:43:45.499Z,28.48
2022-08-23T15:46:18.018Z,28.37
2022-08-23T15:48:56.894Z,28.40
2022-08-23T15:51:24.898Z,28.89
2022-08-23T15:53:52.286Z,28.64
2022-08-23T15:56:22.765Z,28.90
2022-08-23T15:58:49.866Z,29.12
2022-08-23T16:01:19.875Z,28.92
2022-08-23T16:03:50.275Z,29.14
2022-08-23T16:06:17.265Z,29.31
2022-08-23T16:08:48.725Z,29.12
2022-08-23T16:11:16.003Z,29.66
2022-08-23T16:13:46.686Z,29.72
2022-08-23T16:16:30.889Z,29.67
2022-08-23T16:19:00.043Z,30.05
2022-08-23T16:21:29.114Z,30.53
2022-08-23T16:23:57.653Z,30.64
2022-08-23T16:26:35.050Z,30.94
2022-08-23T16:29:08.716Z,31.14
2022-08-23T16:31:39.390Z,30.97
2022-08-23T16:34:12.604Z,31.43
2022-08-23T16:36:42.341Z,31.56
2022-08-23T16:39:11.829Z,31.44
2022-08-23T16:41:38.839Z,31.53
2022-08-23T16:44:06.265Z,31.03
2022-08-23T16:46:33.471Z,31.37
2022-08-23T16:49:00.604Z,31.32
2022-08-23T16:51:27.502Z,31.12
2022-08-23T16:54:02.503Z,30.82
2022-08-23T16:56:32.409Z,31.05
2022-08-23T16:58:59.649Z,31.03
2022-08-23T17:01:27.932Z,31.46
2022-08-23T17:03:55.402Z,31.34
2022-08-23T17:06:22.923Z,31.41
2022-08-23T17:08:50.127Z,31.68
2022-08-23T17:11:19.611Z,31.61
2022-08-23T17:13:47.105Z,31.71
2022-08-23T17:16:14.199Z,32.07
2022-08-23T17:18:41.442Z,32.01
2022-08-23T17:21:09.324Z,32.08
2022-08-23T17:23:39.333Z,32.58
2022-08-23T17:26:09.548Z,32.89
2022-08-23T17:28:36.792Z,33.01
2022-08-23T17:31:03.730Z,33.43
2022-08-23T17:33:30.778Z,33.65
2022-08-23T17:35:57.957Z,33.74
2022-08-23T17:38:24.809Z,33.72
2022-08-23T17:40:53.566Z,34.10
2022-08-23T17:43:20.760Z,34.31
2022-08-23T17:45:51.132Z,34.40
2022-08-23T17:48:21.949Z,34.24
2022-08-23T17:50:50.122Z,34.52
2022-08-23T17:53:18.376Z,34.67
2022-08-23T17:55:45.841Z,35.08
2022-08-23T17:58:14.333Z,34.96
2022-08-23T18:00:41.444Z,35.19
2022-08-23T18:03:08.649Z,35.20
2022-08-23T18:05:39.999Z,35.45
2022-08-23T18:08:08.512Z,35.74
2022-08-23T18:10:35.927Z,35.48
2022-08-23T18:13:03.461Z,35.90
2022-08-23T18:15:31.443Z,36.11
2022-08-23T18:18:00.489Z,36.31
2022-08-23T18:20:29.016Z,36.48
2022-08-23T18:22:58.375Z,36.67
2022-08-23T18:25:25.951Z,36.79
2022-08-23T18:28:11.662Z,37.23
2022-08-23T18:30:51.414Z,37.13
2022-08-23T18:33:20.582Z,37.20
2022-08-23T18:35:52.511Z,37.45
2022-08-23T18:38:19.474Z,37.70
2022-08-23T18:40:48.462Z,37.85
2022-08-23T18:43:27.202Z,37.75
2022-08-23T18:46:05.280Z,38.02
2022-08-23T18:48:33.699Z,38.30
2022-08-23T18:51:01.325Z,39.02
2022-08-23T18:53:28.368Z,38.55
2022-08-23T18:55:56.169Z,38.66
2022-08-23T18:58:23.601Z,38.38
2022-08-23T19:00:52.715Z,38.93
2022-08-23T19:03:20.692Z,39.47
2022-08-23T19:05:48.597Z,40.13
2022-08-23T19:08:16.559Z,39.51
2022-08-23T19:10:44.762Z,39.16
2022-08-23T19:13:16.103Z,39.81
2022-08-23T19:15:43.252Z,40.11
2022-08-23T19:18:11.052Z,39.92
2022-08-23T19:20:38.259Z,40.19
2022-08-23T19:23:05.128Z,40.35
2022-08-23T19:25:34.075Z,40.79
2022-08-23T19:28:00.906Z,40.62
2022-08-23T19:30:28.605Z,40.86
2022-08-23T19:32:56.804Z,40.94
2022-08-23T19:35:24.344Z,41.24
2022-08-23T19:37:54.714Z,41.35
2022-08-23T19:40:22.116Z,41.24
2022-08-23T19:42:49.150Z,41.78
2022-08-23T19:45:16.772Z,41.60
2022-08-23T19:47:43.767Z,41.44
2022-08-23T19:50:11.256Z,41.68
2022-08-23T19:52:38.919Z,41.68
2022-08-23T19:55:07.593Z,42.03
2022-08-23T19:57:37.047Z,41.96
2022-08-23T20:00:13.602Z,42.48
2022-08-23T20:02:45.319Z,44.01
2022-08-23T20:05:12.415Z,44.60
2022-08-23T20:07:40.002Z,44.94
2022-08-23T20:10:08.609Z,45.20
2022-08-23T20:12:35.586Z,44.67
2022-08-23T20:15:02.980Z,44.88
2022-08-23T20:17:30.436Z,45.89
2022-08-23T20:19:57.860Z,46.19
2022-08-23T20:22:43.984Z,45.97
2022-08-23T20:25:11.331Z,45.29
2022-08-23T20:27:38.432Z,44.69
2022-08-23T20:30:08.932Z,44.88
2022-08-23T20:32:36.151Z,44.99
2022-08-23T20:35:05.896Z,45.20
2022-08-23T20:37:33.068Z,44.99
2022-08-23T20:40:00.553Z,45.76
2022-08-23T20:42:27.910Z,45.63
2022-08-23T20:44:55.449Z,46.32
2022-08-23T20:47:22.497Z,46.04
2022-08-23T20:49:49.600Z,45.95
2022-08-23T20:52:18.425Z,46.09
2022-08-23T20:54:45.949Z,46.63
2022-08-23T20:57:12.966Z,46.66
2022-08-23T20:59:44.387Z,46.77
2022-08-23T21:02:12.435Z,47.13
2022-08-23T21:04:40.262Z,47.42
2022-08-23T21:07:10.730Z,47.45
2022-08-23T21:09:39.537Z,48.22
2022-08-23T21:12:06.739Z,48.61
2022-08-23T21:14:33.881Z,48.59
2022-08-23T21:17:01.188Z,48.59
2022-08-23T21:19:30.017Z,48.94
2022-08-23T21:21:58.372Z,48.58
2022-08-23T21:24:26.279Z,49.10
2022-08-23T21:26:53.269Z,48.83
2022-08-23T21:29:20.372Z,48.88
2022-08-23T21:31:48.147Z,48.71
2022-08-23T21:34:15.206Z,49.01
2022-08-23T21:36:42.425Z,48.88
2022-08-23T21:39:09.275Z,49.10
2022-08-23T21:41:42.702Z,49.87
2022-08-23T21:44:13.847Z,49.65
2022-08-23T21:46:41.921Z,49.61
2022-08-23T21:49:09.661Z,49.76
2022-08-23T21:51:41.034Z,49.73
2022-08-23T21:54:10.006Z,50.31
2022-08-23T21:56:38.219Z,50.44
2022-08-23T21:59:07.796Z,51.01
2022-08-23T22:01:35.673Z,50.51
2022-08-23T22:04:06.166Z,50.72
2022-08-23T22:06:35.052Z,51.09
2022-08-23T22:09:03.334Z,50.82
2022-08-23T22:11:30.491Z,51.29
2022-08-23T22:13:57.533Z,51.51
2022-08-23T22:16:24.845Z,51.90
2022-08-23T22:18:51.916Z,51.90
2022-08-23T22:21:18.884Z,52.30
2022-08-23T22:23:45.899Z,52.77
2022-08-23T22:26:14.021Z,52.67
2022-08-23T22:28:44.788Z,52.25
2022-08-23T22:31:14.480Z,52.09
2022-08-23T22:33:43.117Z,52.88
2022-08-23T22:36:13.846Z,52.06
2022-08-23T22:38:40.758Z,51.96
2022-08-23T22:41:07.691Z,52.76
2022-08-23T22:43:35.803Z,53.38
2022-08-23T22:46:04.993Z,53.11
2022-08-23T22:48:34.364Z,53.25
2022-08-23T22:51:12.682Z,53.79
2022-08-23T22:53:42.956Z,54.19
2022-08-23T22:56:13.022Z,54.17
2022-08-23T22:58:40.542Z,54.67
2022-08-23T23:01:13.410Z,54.38
2022-08-23T23:03:41.968Z,54.93
2022-08-23T23:06:09.831Z,55.35
2022-08-23T23:08:37.083Z,55.50
2022-08-23T23:11:07.636Z,55.18
2022-08-23T23:13:35.122Z,55.75
2022-08-23T23:16:05.023Z,55.98
2022-08-23T23:18:31.720Z,55.52
2022-08-23T23:21:00.630Z,55.49
2022-08-23T23:23:29.065Z,56.24
2022-08-23T23:25:57.255Z,56.30
2022-08-23T23:28:24.468Z,56.59
2022-08-23T23:30:54.456Z,56.64
2022-08-23T23:33:22.373Z,56.84
2022-08-23T23:35:51.731Z,57.17
2022-08-23T23:38:19.351Z,56.97
2022-08-23T23:40:46.241Z,57.33
2022-08-23T23:43:13.500Z,57.51
2022-08-23T23:45:42.333Z,57.70
2022-08-23T23:48:09.984Z,57.31
2022-08-23T23:50:45.158Z,57.49
2022-08-23T23:53:14.459Z,57.09
2022-08-23T23:55:41.952Z,57.39
2022-08-23T23:58:09.174Z,57.57
